Time;durP1;ratioP1;P1;durP2;ratioP2;P2;SDS_P1;SDS_P2;PMS_P1;PMS_P2;Temp;Humidity;BMP_temperature;BMP_pressure;BME280_temperature;BME280_humidity;BME280_pressure;Samples;Min_cycle;Max_cycle;Signal;HPM_P1;HPM_P2
2023/09/14 00:00:04;;;;;;;2.70;1.60;;;16.10;99.90;;;;;;2078526;28;20043;-71
2023/09/14 00:01:04;;;;;;;3.33;1.80;;;16.00;99.90;;;;;;2076364;28;20369;-71
2023/09/14 00:02:05;;;;;;;4.18;1.70;;;16.00;99.90;;;;;;2076084;28;20064;-71
2023/09/14 00:03:06;;;;;;;3.55;1.92;;;16.00;99.90;;;;;;2075905;28;20118;-71
2023/09/14 00:04:06;;;;;;;4.85;1.65;;;16.00;99.90;;;;;;2076201;28;20034;-71
2023/09/14 00:05:07;;;;;;;3.97;1.77;;;16.00;99.90;;;;;;2077264;28;20045;-71
2023/09/14 00:06:08;;;;;;;4.93;2.08;;;16.00;99.90;;;;;;2076721;28;20093;-71
2023/09/14 00:07:09;;;;;;;5.93;1.80;;;15.90;99.90;;;;;;2075537;28;20018;-71
2023/09/14 00:08:11;;;;;;;2.33;1.83;;;15.90;99.90;;;;;;2076452;28;20101;-71
2023/09/14 00:09:11;;;;;;;3.80;1.80;;;15.90;99.90;;;;;;2076559;28;20038;-71
2023/09/14 00:10:12;;;;;;;1.83;1.60;;;15.90;99.90;;;;;;2077394;28;20029;-71
2023/09/14 00:11:13;;;;;;;5.68;1.80;;;15.90;99.90;;;;;;2075951;28;20034;-71
2023/09/14 00:12:13;;;;;;;2.92;1.80;;;15.80;99.90;;;;;;2078710;28;20029;-71
2023/09/14 00:13:14;;;;;;;3.58;1.80;;;15.90;99.90;;;;;;2076101;28;20029;-71
2023/09/14 00:14:14;;;;;;;4.72;1.88;;;15.80;99.90;;;;;;2075492;28;20044;-71
2023/09/14 00:15:15;;;;;;;2.20;1.58;;;15.80;99.90;;;;;;2074814;28;20026;-71
2023/09/14 00:16:15;;;;;;;3.90;1.60;;;15.80;99.90;;;;;;2075304;28;20022;-71
2023/09/14 00:17:16;;;;;;;5.07;1.60;;;15.80;99.90;;;;;;2076124;28;20030;-71
2023/09/14 00:18:17;;;;;;;4.50;1.42;;;15.80;99.90;;;;;;2076257;28;20037;-71
2023/09/14 00:19:17;;;;;;;5.43;1.63;;;15.80;99.90;;;;;;2075594;28;20075;-71
2023/09/14 00:20:20;;;;;;;3.42;1.98;;;15.80;99.90;;;;;;2076442;28;20392;-71
2023/09/14 00:21:21;;;;;;;4.43;1.83;;;15.70;99.90;;;;;;2075690;28;20049;-71
2023/09/14 00:22:21;;;;;;;3.30;1.67;;;15.70;99.90;;;;;;2076549;28;20040;-71
2023/09/14 00:23:22;;;;;;;6.78;2.33;;;15.70;99.90;;;;;;2076122;28;20873;-71
2023/09/14 00:24:22;;;;;;;5.18;1.88;;;15.70;99.90;;;;;;2074323;28;20030;-71
2023/09/14 00:25:23;;;;;;;3.60;1.65;;;15.70;99.90;;;;;;2075345;28;20041;-71
2023/09/14 00:26:24;;;;;;;4.43;1.65;;;15.70;99.90;;;;;;2075159;28;20530;-71
2023/09/14 00:27:25;;;;;;;4.85;1.60;;;15.60;99.90;;;;;;2078479;28;20032;-71
2023/09/14 00:28:25;;;;;;;2.30;1.52;;;15.60;99.90;;;;;;2077072;28;20025;-71
2023/09/14 00:29:26;;;;;;;9.20;2.55;;;15.60;99.90;;;;;;2077222;28;20032;-71
2023/09/14 00:30:26;;;;;;;6.43;2.05;;;15.60;99.90;;;;;;2076793;28;20116;-71
2023/09/14 00:31:27;;;;;;;3.70;1.50;;;15.60;99.90;;;;;;2076548;28;20056;-71
2023/09/14 00:32:27;;;;;;;3.85;1.58;;;15.60;99.90;;;;;;2076176;28;20400;-71
2023/09/14 00:33:28;;;;;;;7.82;2.10;;;15.60;99.90;;;;;;2076331;28;20030;-71
2023/09/14 00:34:28;;;;;;;7.00;2.30;;;15.60;99.90;;;;;;2083026;28;20072;-72
2023/09/14 00:35:30;;;;;;;2.45;1.40;;;15.60;99.90;;;;;;2082429;28;20021;-71
2023/09/14 00:36:30;;;;;;;3.35;1.70;;;15.50;99.90;;;;;;2079549;28;20024;-71
2023/09/14 00:37:31;;;;;;;4.43;1.77;;;15.50;99.90;;;;;;2078131;28;20028;-71
2023/09/14 00:38:31;;;;;;;4.03;1.70;;;15.50;99.90;;;;;;2076445;28;20025;-71
2023/09/14 00:39:32;;;;;;;5.68;1.92;;;15.50;99.90;;;;;;2076413;28;20088;-71
2023/09/14 00:40:32;;;;;;;3.00;1.73;;;15.50;99.90;;;;;;2076140;28;20681;-71
2023/09/14 00:41:33;;;;;;;7.25;1.95;;;15.50;99.90;;;;;;2077533;28;20029;-71
2023/09/14 00:42:41;;;;;;;4.90;1.60;;;15.40;99.90;;;;;;2077571;28;20111;-71
2023/09/14 00:43:41;;;;;;;6.78;1.48;;;15.40;99.90;;;;;;2074449;28;20026;-71
2023/09/14 00:44:42;;;;;;;4.13;1.95;;;15.40;99.90;;;;;;2079047;28;20112;-71
2023/09/14 00:45:43;;;;;;;2.78;1.77;;;15.40;99.90;;;;;;2077273;28;20029;-71
2023/09/14 00:46:44;;;;;;;2.72;1.80;;;15.40;99.90;;;;;;2076312;28;20432;-71
2023/09/14 00:47:49;;;;;;;7.57;1.95;;;15.40;99.90;;;;;;2075535;28;20088;-71
2023/09/14 00:48:50;;;;;;;3.60;1.73;;;15.30;99.90;;;;;;2076596;28;20061;-71
2023/09/14 00:49:50;;;;;;;5.90;1.83;;;15.40;99.90;;;;;;2078056;28;20080;-71
2023/09/14 00:50:51;;;;;;;2.70;2.05;;;15.30;99.90;;;;;;2076159;28;20064;-71
2023/09/14 00:51:52;;;;;;;4.05;1.52;;;15.30;99.90;;;;;;2076943;28;20075;-71
2023/09/14 00:53:02;;;;;;;4.72;1.77;;;15.30;99.90;;;;;;2075662;28;20032;-71
2023/09/14 00:54:03;;;;;;;5.82;1.60;;;15.30;99.90;;;;;;2074749;28;20026;-71
2023/09/14 00:55:06;;;;;;;2.50;1.50;;;15.30;99.90;;;;;;2075716;28;20068;-71
2023/09/14 00:56:07;;;;;;;2.78;2.00;;;15.30;99.90;;;;;;2076066;28;20037;-71
2023/09/14 00:57:08;;;;;;;3.28;2.00;;;15.30;99.90;;;;;;2076545;28;20026;-71
2023/09/14 00:58:14;;;;;;;3.22;1.52;;;15.30;99.90;;;;;;2076156;28;20916;-71
2023/09/14 00:59:15;;;;;;;2.88;1.33;;;15.30;99.90;;;;;;2076536;28;20032;-71
2023/09/14 01:00:20;;;;;;;7.15;1.83;;;15.20;99.90;;;;;;2076801;28;20022;-71
2023/09/14 01:01:20;;;;;;;4.55;1.98;;;15.20;99.90;;;;;;2073323;28;20113;-71
2023/09/14 01:02:21;;;;;;;4.28;2.20;;;15.20;99.90;;;;;;2076205;28;20029;-71
2023/09/14 01:03:23;;;;;;;4.43;1.83;;;15.20;99.90;;;;;;2075538;28;20026;-71
2023/09/14 01:04:29;;;;;;;6.03;2.25;;;15.20;99.90;;;;;;2075501;28;20065;-71
2023/09/14 01:05:30;;;;;;;6.50;1.83;;;15.20;99.90;;;;;;2074659;28;20026;-71
2023/09/14 01:06:32;;;;;;;3.20;2.00;;;15.20;99.90;;;;;;2076667;28;20030;-71
2023/09/14 01:07:33;;;;;;;6.70;1.75;;;15.20;99.90;;;;;;2076041;28;20030;-71
2023/09/14 01:08:34;;;;;;;4.97;2.03;;;15.20;99.90;;;;;;2075724;28;20026;-71
2023/09/14 01:09:35;;;;;;;3.20;1.60;;;15.20;99.90;;;;;;2075171;28;20065;-71
2023/09/14 01:10:36;;;;;;;3.50;1.58;;;15.20;99.90;;;;;;2074510;28;20017;-71
2023/09/14 01:11:37;;;;;;;2.90;1.85;;;15.20;99.90;;;;;;2075081;28;20048;-71
2023/09/14 01:12:38;;;;;;;5.40;2.15;;;15.10;99.90;;;;;;2076303;28;20052;-71
2023/09/14 01:14:09;;;;;;;4.70;1.80;;;15.20;99.90;;;;;;2075951;28;20026;-71
2023/09/14 01:15:24;;;;;;;3.45;1.70;;;15.20;99.90;;;;;;2075472;28;20033;-71
2023/09/14 01:16:45;;;;;;;3.33;1.60;;;15.10;99.90;;;;;;2075046;28;20028;-71
2023/09/14 01:18:19;;;;;;;3.92;2.08;;;15.10;99.90;;;;;;2076274;28;20032;-71
2023/09/14 01:19:40;;;;;;;8.85;1.77;;;15.00;99.90;;;;;;2077063;28;20069;-71
2023/09/14 01:21:11;;;;;;;4.28;1.80;;;15.00;99.90;;;;;;2076148;28;20029;-71
2023/09/14 01:22:50;;;;;;;5.35;1.98;;;15.00;99.90;;;;;;2074491;28;20036;-71
2023/09/14 01:24:02;;;;;;;5.38;1.55;;;14.90;99.90;;;;;;2076447;28;20420;-71
2023/09/14 01:25:10;;;;;;;5.22;2.08;;;14.90;99.90;;;;;;2075068;28;20156;-71
2023/09/14 01:26:11;;;;;;;5.00;2.08;;;14.90;99.90;;;;;;2076065;28;20033;-71
2023/09/14 01:27:12;;;;;;;4.57;1.98;;;14.90;99.90;;;;;;2078326;28;20075;-71
2023/09/14 01:28:14;;;;;;;3.13;1.65;;;14.90;99.90;;;;;;2076162;28;20046;-71
2023/09/14 01:29:15;;;;;;;2.80;1.90;;;14.90;99.90;;;;;;2075594;28;20108;-71
2023/09/14 01:30:16;;;;;;;6.50;2.13;;;14.90;99.90;;;;;;2075701;28;20083;-71
2023/09/14 01:31:16;;;;;;;4.70;2.03;;;14.90;99.90;;;;;;2075031;28;20116;-71
2023/09/14 01:32:17;;;;;;;7.07;2.45;;;14.90;99.90;;;;;;2076489;28;20092;-71
2023/09/14 01:33:20;;;;;;;4.78;1.98;;;14.90;99.90;;;;;;2075043;28;20088;-71
2023/09/14 01:34:21;;;;;;;9.05;2.03;;;14.90;99.90;;;;;;2074955;28;20056;-71
2023/09/14 01:35:22;;;;;;;4.60;1.98;;;14.90;99.90;;;;;;2074267;28;20468;-71
2023/09/14 01:36:35;;;;;;;5.53;2.15;;;14.90;99.90;;;;;;2075012;28;20530;-71
2023/09/14 01:37:36;;;;;;;3.88;1.92;;;14.90;99.90;;;;;;2074632;28;20029;-71
2023/09/14 01:38:37;;;;;;;4.53;1.67;;;14.90;99.90;;;;;;2074868;28;20018;-71
2023/09/14 01:39:39;;;;;;;4.15;1.60;;;14.90;99.90;;;;;;2076688;28;20034;-71
2023/09/14 01:40:43;;;;;;;5.50;1.80;;;14.90;99.90;;;;;;2074767;28;20033;-71
2023/09/14 01:41:44;;;;;;;5.80;2.05;;;14.90;99.90;;;;;;2077738;28;20028;-71
2023/09/14 01:42:45;;;;;;;5.95;2.60;;;14.90;99.90;;;;;;2075348;28;20404;-71
2023/09/14 01:43:51;;;;;;;4.40;2.08;;;14.90;99.90;;;;;;2075727;28;20092;-71
2023/09/14 01:44:52;;;;;;;4.25;2.00;;;14.90;99.90;;;;;;2073973;28;20025;-71
2023/09/14 01:45:53;;;;;;;4.07;2.10;;;14.90;99.90;;;;;;2076603;28;20108;-71
2023/09/14 01:46:54;;;;;;;3.42;1.90;;;14.90;99.90;;;;;;2075276;28;20029;-71
2023/09/14 01:47:56;;;;;;;13.90;2.50;;;14.80;99.90;;;;;;2073641;28;20022;-71
2023/09/14 01:48:56;;;;;;;3.40;1.52;;;14.80;99.90;;;;;;2073167;28;20095;-71
2023/09/14 01:49:57;;;;;;;4.57;2.15;;;14.80;99.90;;;;;;2074814;28;20086;-71
2023/09/14 01:50:57;;;;;;;6.35;2.33;;;14.80;99.90;;;;;;2073766;28;20439;-71
2023/09/14 01:51:58;;;;;;;3.10;2.03;;;14.80;99.90;;;;;;2074981;28;20036;-71
2023/09/14 01:52:59;;;;;;;4.70;1.92;;;14.80;99.90;;;;;;2073437;28;20033;-71
2023/09/14 01:54:00;;;;;;;5.50;2.20;;;14.80;99.90;;;;;;2076242;28;20033;-71
2023/09/14 01:55:00;;;;;;;5.55;2.20;;;14.80;99.90;;;;;;2076509;28;20068;-71
2023/09/14 01:56:01;;;;;;;4.60;1.92;;;14.80;99.90;;;;;;2075850;28;20404;-71
2023/09/14 01:57:01;;;;;;;3.33;2.03;;;14.80;99.90;;;;;;2076734;28;20026;-71
2023/09/14 01:58:02;;;;;;;4.00;2.15;;;14.70;99.90;;;;;;2073304;28;20021;-71
2023/09/14 01:59:03;;;;;;;3.67;2.00;;;14.70;99.90;;;;;;2072474;28;20037;-71
2023/09/14 02:00:04;;;;;;;3.60;2.10;;;14.70;99.90;;;;;;2076927;28;20791;-71
2023/09/14 02:01:05;;;;;;;4.00;2.00;;;14.70;99.90;;;;;;2075327;28;20065;-71
2023/09/14 02:02:05;;;;;;;5.65;1.95;;;14.70;99.90;;;;;;2077064;28;20040;-71
2023/09/14 02:03:06;;;;;;;3.13;1.85;;;14.70;99.90;;;;;;2076230;28;20025;-71
2023/09/14 02:04:06;;;;;;;5.05;1.83;;;14.70;99.90;;;;;;2075716;28;20045;-71
2023/09/14 02:05:07;;;;;;;5.00;2.10;;;14.70;99.90;;;;;;2076210;28;20120;-71
2023/09/14 02:06:08;;;;;;;5.65;2.15;;;14.70;99.90;;;;;;2075639;28;20029;-71
2023/09/14 02:07:08;;;;;;;6.47;2.33;;;14.60;99.90;;;;;;2076106;28;20045;-71
2023/09/14 02:08:09;;;;;;;5.22;2.03;;;14.70;99.90;;;;;;2074574;28;20060;-71
2023/09/14 02:09:10;;;;;;;3.13;2.33;;;14.60;99.90;;;;;;2075716;28;20057;-71
2023/09/14 02:10:10;;;;;;;4.65;2.10;;;14.60;99.90;;;;;;2075781;28;20117;-71
2023/09/14 02:11:13;;;;;;;5.55;2.63;;;14.60;99.90;;;;;;2074439;28;20108;-71
2023/09/14 02:12:13;;;;;;;3.90;2.10;;;14.60;99.90;;;;;;2073562;28;20033;-71
2023/09/14 02:13:14;;;;;;;4.78;2.13;;;14.60;99.90;;;;;;2076830;28;20044;-71
2023/09/14 02:14:14;;;;;;;4.78;2.08;;;14.60;99.90;;;;;;2076296;28;20406;-71
2023/09/14 02:15:15;;;;;;;8.82;2.15;;;14.60;99.90;;;;;;2075676;28;20140;-71
2023/09/14 02:16:16;;;;;;;6.32;2.60;;;14.60;99.90;;;;;;2075641;28;20084;-71
2023/09/14 02:17:17;;;;;;;4.93;2.22;;;14.60;99.90;;;;;;2076122;28;20033;-71
2023/09/14 02:18:17;;;;;;;6.82;2.72;;;14.60;99.90;;;;;;2076333;28;20048;-71
2023/09/14 02:19:18;;;;;;;4.63;2.03;;;14.60;99.90;;;;;;2076923;28;20022;-71
2023/09/14 02:20:18;;;;;;;5.63;2.10;;;14.60;99.90;;;;;;2076716;28;20076;-71
2023/09/14 02:21:19;;;;;;;3.95;2.42;;;14.60;99.90;;;;;;2076827;28;20037;-71
2023/09/14 02:22:19;;;;;;;8.98;2.20;;;14.60;99.90;;;;;;2075261;28;20021;-71
2023/09/14 02:23:20;;;;;;;4.43;1.80;;;14.60;99.90;;;;;;2075539;28;20096;-71
2023/09/14 02:24:20;;;;;;;4.25;2.10;;;14.60;99.90;;;;;;2075971;28;20518;-71
2023/09/14 02:25:21;;;;;;;5.88;2.10;;;14.60;99.90;;;;;;2076654;28;20030;-71
2023/09/14 02:26:21;;;;;;;5.22;1.90;;;14.50;99.90;;;;;;2076083;28;20033;-71
2023/09/14 02:27:22;;;;;;;3.88;1.90;;;14.50;99.90;;;;;;2074747;28;20550;-71
2023/09/14 02:28:23;;;;;;;6.10;2.35;;;14.50;99.90;;;;;;2077749;28;20505;-71
2023/09/14 02:29:24;;;;;;;8.02;2.15;;;14.50;99.90;;;;;;2079253;28;20029;-71
2023/09/14 02:30:26;;;;;;;4.28;1.92;;;14.50;99.90;;;;;;2074785;28;20029;-71
2023/09/14 02:31:26;;;;;;;5.25;1.88;;;14.50;99.90;;;;;;2075817;28;20029;-71
2023/09/14 02:32:27;;;;;;;3.63;2.03;;;14.50;99.90;;;;;;2073891;28;20040;-71
2023/09/14 02:33:27;;;;;;;2.38;1.95;;;14.50;99.90;;;;;;2074528;28;20033;-71
2023/09/14 02:34:28;;;;;;;3.60;2.10;;;14.50;99.90;;;;;;2075484;28;20026;-71
2023/09/14 02:35:28;;;;;;;5.32;2.40;;;14.50;99.90;;;;;;2075029;28;20444;-71
2023/09/14 02:36:29;;;;;;;5.72;1.90;;;14.50;99.90;;;;;;2076201;28;20030;-71
2023/09/14 02:37:30;;;;;;;4.65;2.20;;;14.50;99.90;;;;;;2084051;28;20479;-71
2023/09/14 02:38:31;;;;;;;3.67;2.28;;;14.50;99.90;;;;;;2075318;28;20025;-71
2023/09/14 02:39:31;;;;;;;5.50;2.28;;;14.50;99.90;;;;;;2076962;28;20025;-71
2023/09/14 02:40:33;;;;;;;5.70;1.92;;;14.50;99.90;;;;;;2076289;28;20030;-71
2023/09/14 02:41:33;;;;;;;5.07;2.47;;;14.50;99.90;;;;;;2076852;28;20037;-71
2023/09/14 02:42:37;;;;;;;3.00;2.15;;;14.50;99.90;;;;;;2074231;28;20979;-71
2023/09/14 02:43:38;;;;;;;3.33;2.10;;;14.50;99.90;;;;;;2075396;28;20053;-71
2023/09/14 02:44:38;;;;;;;3.92;1.88;;;14.50;99.90;;;;;;2074525;28;20030;-71
2023/09/14 02:45:39;;;;;;;6.05;2.40;;;14.50;99.90;;;;;;2074975;28;20030;-71
2023/09/14 02:46:40;;;;;;;8.90;2.88;;;14.50;99.90;;;;;;2073439;28;20030;-71
2023/09/14 02:47:40;;;;;;;5.53;2.40;;;14.50;99.90;;;;;;2076427;28;20075;-71
2023/09/14 02:48:41;;;;;;;4.32;1.90;;;14.50;99.90;;;;;;2076955;28;20114;-71
2023/09/14 02:49:41;;;;;;;4.68;2.00;;;14.50;99.90;;;;;;2076867;28;20029;-71
2023/09/14 02:50:43;;;;;;;5.82;2.53;;;14.50;99.90;;;;;;2082389;28;20111;-71
2023/09/14 02:51:44;;;;;;;5.25;2.42;;;14.50;99.90;;;;;;2080874;28;20021;-71
2023/09/14 02:52:44;;;;;;;4.80;1.95;;;14.50;99.90;;;;;;2077065;28;20116;-71
2023/09/14 02:53:46;;;;;;;6.20;2.13;;;14.50;99.90;;;;;;2076529;28;20477;-71
2023/09/14 02:54:47;;;;;;;6.13;2.58;;;14.50;99.90;;;;;;2076909;28;20014;-71
2023/09/14 02:55:47;;;;;;;7.82;1.90;;;14.50;99.90;;;;;;2077442;28;20212;-71
2023/09/14 02:56:48;;;;;;;5.65;1.90;;;14.50;99.90;;;;;;2076177;28;20025;-71
2023/09/14 02:57:48;;;;;;;3.70;2.10;;;14.50;99.90;;;;;;2075172;28;20052;-71
2023/09/14 02:58:52;;;;;;;8.77;2.10;;;14.50;99.90;;;;;;2073977;28;20105;-71
2023/09/14 02:59:54;;;;;;;3.78;2.45;;;14.50;99.90;;;;;;2075103;28;20033;-71
2023/09/14 03:00:56;;;;;;;7.05;2.40;;;14.50;99.90;;;;;;2073804;28;20028;-71
2023/09/14 03:01:57;;;;;;;4.82;2.03;;;14.50;99.90;;;;;;2074823;28;20028;-71
2023/09/14 03:02:57;;;;;;;5.45;2.17;;;14.50;99.90;;;;;;2075412;28;20026;-71
2023/09/14 03:03:58;;;;;;;5.00;2.28;;;14.50;99.90;;;;;;2075582;28;20034;-71
2023/09/14 03:04:58;;;;;;;4.18;2.20;;;14.50;99.90;;;;;;2075121;28;20037;-71
2023/09/14 03:05:59;;;;;;;3.05;2.10;;;14.50;99.90;;;;;;2077253;28;20022;-71
2023/09/14 03:07:00;;;;;;;5.47;2.25;;;14.50;99.90;;;;;;2074997;28;21153;-71
2023/09/14 03:08:00;;;;;;;3.38;1.75;;;14.50;99.90;;;;;;2075549;28;20018;-71
2023/09/14 03:09:01;;;;;;;3.42;1.67;;;14.50;99.90;;;;;;2077341;28;20040;-71
2023/09/14 03:10:01;;;;;;;3.38;1.92;;;14.50;99.90;;;;;;2075623;28;20061;-71
2023/09/14 03:11:02;;;;;;;6.03;2.25;;;14.50;99.90;;;;;;2076233;28;20108;-71
2023/09/14 03:12:03;;;;;;;11.45;2.75;;;14.50;99.90;;;;;;2075802;28;20030;-71
2023/09/14 03:13:03;;;;;;;5.78;2.25;;;14.50;99.90;;;;;;2076294;28;20037;-71
2023/09/14 03:14:04;;;;;;;5.28;2.28;;;14.50;99.90;;;;;;2076067;28;20500;-71
2023/09/14 03:15:06;;;;;;;3.60;1.73;;;14.40;99.90;;;;;;2076922;28;20056;-71
2023/09/14 03:16:06;;;;;;;3.55;1.95;;;14.40;99.90;;;;;;2075087;28;20025;-71
2023/09/14 03:17:07;;;;;;;3.65;1.88;;;14.40;99.90;;;;;;2073727;28;20064;-71
2023/09/14 03:18:07;;;;;;;4.07;2.00;;;14.40;99.90;;;;;;2074722;28;20467;-71
2023/09/14 03:19:08;;;;;;;6.50;2.40;;;14.40;99.90;;;;;;2076469;28;20021;-71
2023/09/14 03:20:10;;;;;;;4.15;2.03;;;14.40;99.90;;;;;;2074462;28;20108;-71
2023/09/14 03:21:30;;;;;;;3.90;1.90;;;14.40;99.90;;;;;;2075117;28;20036;-71
2023/09/14 03:22:31;;;;;;;4.97;2.45;;;14.40;99.90;;;;;;2075695;28;20073;-71
2023/09/14 03:23:31;;;;;;;4.95;1.92;;;14.40;99.90;;;;;;2075540;28;20038;-71
2023/09/14 03:24:32;;;;;;;4.05;1.88;;;14.40;99.90;;;;;;2074981;28;20451;-71
2023/09/14 03:25:32;;;;;;;9.00;2.33;;;14.40;99.90;;;;;;2074383;28;20038;-71
2023/09/14 03:26:33;;;;;;;5.70;2.25;;;14.30;99.90;;;;;;2074749;28;21014;-71
2023/09/14 03:27:33;;;;;;;5.50;2.58;;;14.30;99.90;;;;;;2076983;28;20022;-71
2023/09/14 03:28:34;;;;;;;4.03;2.15;;;14.30;99.90;;;;;;2076680;28;20370;-71
2023/09/14 03:29:34;;;;;;;5.22;2.53;;;14.30;99.90;;;;;;2078507;28;20025;-71
2023/09/14 03:30:35;;;;;;;4.53;2.17;;;14.30;99.90;;;;;;2077210;28;20079;-71
2023/09/14 03:31:36;;;;;;;7.82;2.22;;;14.30;99.90;;;;;;2075503;28;20054;-71
2023/09/14 03:32:36;;;;;;;5.30;2.40;;;14.30;99.90;;;;;;2074909;28;20104;-71
2023/09/14 03:33:37;;;;;;;5.38;2.35;;;14.30;99.90;;;;;;2074930;28;20072;-71
2023/09/14 03:34:38;;;;;;;4.45;2.47;;;14.30;99.90;;;;;;2075244;28;20028;-71
2023/09/14 03:35:40;;;;;;;5.05;2.75;;;14.30;99.90;;;;;;2077541;28;20021;-71
2023/09/14 03:36:40;;;;;;;7.95;2.63;;;14.30;99.90;;;;;;2075957;28;20029;-71
2023/09/14 03:37:41;;;;;;;4.03;2.45;;;14.30;99.90;;;;;;2077686;28;20022;-71
2023/09/14 03:38:42;;;;;;;9.07;3.22;;;14.30;99.90;;;;;;2076466;28;20037;-71
2023/09/14 03:39:45;;;;;;;7.00;3.17;;;14.30;99.90;;;;;;2078599;28;20270;-71
2023/09/14 03:40:45;;;;;;;4.85;2.20;;;14.30;99.90;;;;;;2077767;28;20073;-71
2023/09/14 03:41:49;;;;;;;6.85;2.60;;;14.30;99.90;;;;;;2076431;28;20034;-71
2023/09/14 03:42:50;;;;;;;13.75;2.88;;;14.30;99.90;;;;;;2077121;28;21243;-71
2023/09/14 03:43:50;;;;;;;4.28;2.05;;;14.30;99.90;;;;;;2075418;28;20018;-71
2023/09/14 03:44:51;;;;;;;4.63;2.70;;;14.30;99.90;;;;;;2078594;28;20018;-71
2023/09/14 03:45:51;;;;;;;7.55;2.45;;;14.30;99.90;;;;;;2077342;28;20030;-71
2023/09/14 03:46:52;;;;;;;6.22;2.60;;;14.30;99.90;;;;;;2076934;28;20021;-71
2023/09/14 03:47:55;;;;;;;5.82;2.50;;;14.30;99.90;;;;;;2077086;28;20033;-71
2023/09/14 03:48:56;;;;;;;3.97;2.38;;;14.40;99.90;;;;;;2077139;28;20018;-71
2023/09/14 03:49:56;;;;;;;5.55;2.40;;;14.30;99.90;;;;;;2075833;28;20465;-71
2023/09/14 03:50:59;;;;;;;5.35;2.28;;;14.40;99.90;;;;;;2077139;28;20750;-71
2023/09/14 03:51:59;;;;;;;7.15;2.90;;;14.40;99.90;;;;;;2076468;28;20022;-71
2023/09/14 03:53:02;;;;;;;5.95;2.78;;;14.40;99.90;;;;;;2077307;28;20032;-71
2023/09/14 03:54:03;;;;;;;7.47;2.88;;;14.40;99.90;;;;;;2077831;28;20292;-71
2023/09/14 03:55:04;;;;;;;4.25;2.53;;;14.40;99.90;;;;;;2076799;28;20476;-71
2023/09/14 03:56:04;;;;;;;5.78;2.85;;;14.40;99.90;;;;;;2077119;28;20055;-71
2023/09/14 03:57:14;;;;;;;7.22;2.60;;;14.40;99.90;;;;;;2075499;28;20022;-71
2023/09/14 03:58:14;;;;;;;3.63;2.57;;;14.40;99.90;;;;;;2076012;28;20369;-71
2023/09/14 03:59:15;;;;;;;6.38;2.70;;;14.40;99.90;;;;;;2084183;28;20027;-71
2023/09/14 04:00:16;;;;;;;7.10;2.92;;;14.40;99.90;;;;;;2082641;28;20039;-71
2023/09/14 04:01:16;;;;;;;4.40;2.22;;;14.40;99.90;;;;;;2075549;28;20561;-71
2023/09/14 04:02:17;;;;;;;4.60;2.60;;;14.40;99.90;;;;;;2078135;28;20108;-71
2023/09/14 04:03:18;;;;;;;8.05;2.88;;;14.50;99.90;;;;;;2076563;28;20093;-71
2023/09/14 04:04:18;;;;;;;9.63;3.20;;;14.50;99.90;;;;;;2076810;28;20107;-71
2023/09/14 04:05:19;;;;;;;10.95;3.33;;;14.50;99.90;;;;;;2077286;28;20656;-71
2023/09/14 04:06:19;;;;;;;8.32;3.08;;;14.50;99.90;;;;;;2075400;28;20030;-71
2023/09/14 04:07:20;;;;;;;6.25;3.10;;;14.50;99.90;;;;;;2075311;28;20091;-71
2023/09/14 04:08:23;;;;;;;6.97;2.83;;;14.50;99.90;;;;;;2076068;28;20617;-71
2023/09/14 04:09:23;;;;;;;6.35;3.05;;;14.50;99.90;;;;;;2077311;28;20025;-71
2023/09/14 04:10:24;;;;;;;4.68;2.50;;;14.50;99.90;;;;;;2075979;28;20034;-71
2023/09/14 04:11:24;;;;;;;7.45;2.88;;;14.50;99.90;;;;;;2075225;28;20030;-71
2023/09/14 04:12:25;;;;;;;7.70;3.30;;;14.50;99.90;;;;;;2074437;28;20048;-71
2023/09/14 04:13:32;;;;;;;8.60;3.15;;;14.50;99.90;;;;;;2076303;28;20615;-71
2023/09/14 04:14:32;;;;;;;8.65;2.72;;;14.50;99.90;;;;;;2075368;28;20039;-71
2023/09/14 04:15:33;;;;;;;6.57;2.70;;;14.50;99.90;;;;;;2075290;28;20029;-71
2023/09/14 04:16:34;;;;;;;7.72;3.45;;;14.60;99.90;;;;;;2079032;28;20049;-71
2023/09/14 04:17:35;;;;;;;7.85;2.67;;;14.60;99.90;;;;;;2075880;28;20389;-71
2023/09/14 04:18:38;;;;;;;7.90;2.75;;;14.60;99.90;;;;;;2076369;28;20026;-71
2023/09/14 04:19:39;;;;;;;5.05;2.60;;;14.60;99.90;;;;;;2076659;28;20029;-71
2023/09/14 04:20:39;;;;;;;7.55;2.92;;;14.60;99.90;;;;;;2075626;28;20095;-71
2023/09/14 04:21:43;;;;;;;6.85;2.92;;;14.60;99.90;;;;;;2076511;28;20033;-71
2023/09/14 04:22:43;;;;;;;7.13;3.20;;;14.60;99.90;;;;;;2076300;28;20022;-71
2023/09/14 04:23:45;;;;;;;8.15;3.08;;;14.60;99.90;;;;;;2075525;28;20048;-71
2023/09/14 04:24:46;;;;;;;4.15;2.65;;;14.60;99.90;;;;;;2078022;28;20123;-71
2023/09/14 04:25:47;;;;;;;6.00;2.72;;;14.60;99.90;;;;;;2075954;28;20076;-71
2023/09/14 04:26:48;;;;;;;5.97;3.17;;;14.70;99.90;;;;;;2075698;28;20022;-71
2023/09/14 04:27:49;;;;;;;4.63;2.78;;;14.70;99.90;;;;;;2077176;28;20029;-71
2023/09/14 04:28:50;;;;;;;7.15;3.08;;;14.70;99.90;;;;;;2076279;28;20171;-71
2023/09/14 04:29:52;;;;;;;10.38;3.92;;;14.70;99.90;;;;;;2077271;28;20028;-71
2023/09/14 04:30:57;;;;;;;12.60;3.20;;;14.70;99.90;;;;;;2075896;28;20021;-71
2023/09/14 04:31:58;;;;;;;6.93;2.88;;;14.70;99.90;;;;;;2074188;28;20531;-71
2023/09/14 04:32:59;;;;;;;5.93;2.97;;;14.80;99.90;;;;;;2077020;28;20080;-71
2023/09/14 04:34:00;;;;;;;7.60;2.55;;;14.80;99.90;;;;;;2078215;28;20076;-71
2023/09/14 04:35:01;;;;;;;7.10;3.30;;;14.80;99.90;;;;;;2084071;28;20040;-71
2023/09/14 04:36:05;;;;;;;6.03;3.40;;;14.70;99.90;;;;;;2084176;28;20021;-71
2023/09/14 04:37:05;;;;;;;5.97;2.85;;;14.80;99.90;;;;;;2075515;28;20147;-71
2023/09/14 04:38:07;;;;;;;9.25;3.40;;;14.80;99.90;;;;;;2075120;28;20030;-71
2023/09/14 04:39:07;;;;;;;6.10;3.13;;;14.80;99.90;;;;;;2083410;28;20037;-71
2023/09/14 04:40:09;;;;;;;6.95;4.00;;;14.80;99.90;;;;;;2083447;28;20031;-71
2023/09/14 04:41:09;;;;;;;8.23;2.90;;;14.80;99.90;;;;;;2078481;28;20029;-70
2023/09/14 04:42:10;;;;;;;8.95;2.80;;;14.80;99.90;;;;;;2075524;28;20034;-70
2023/09/14 04:43:11;;;;;;;6.05;3.28;;;14.80;99.90;;;;;;2075095;28;20425;-70
2023/09/14 04:44:11;;;;;;;9.73;3.45;;;14.80;99.90;;;;;;2074798;28;20113;-70
2023/09/14 04:45:13;;;;;;;8.00;2.92;;;14.90;99.90;;;;;;2077210;28;20087;-71
2023/09/14 04:46:13;;;;;;;6.40;2.75;;;14.90;99.90;;;;;;2075926;28;20396;-71
2023/09/14 04:47:14;;;;;;;5.97;3.40;;;14.80;99.90;;;;;;2076009;28;20045;-71
2023/09/14 04:48:15;;;;;;;6.05;2.92;;;14.90;99.90;;;;;;2075105;28;20022;-71
2023/09/14 04:49:16;;;;;;;6.28;2.90;;;14.90;99.90;;;;;;2076007;28;20109;-71
2023/09/14 04:50:16;;;;;;;9.77;3.20;;;14.90;99.90;;;;;;2076744;28;20554;-71
2023/09/14 04:51:17;;;;;;;6.97;3.00;;;14.90;99.90;;;;;;2077311;28;20654;-71
2023/09/14 04:52:19;;;;;;;8.02;2.55;;;14.90;99.90;;;;;;2077586;28;20025;-71
2023/09/14 04:53:20;;;;;;;7.32;3.20;;;14.90;99.90;;;;;;2075866;28;20045;-71
2023/09/14 04:54:20;;;;;;;5.55;2.88;;;14.90;99.90;;;;;;2076389;28;20033;-70
2023/09/14 04:55:21;;;;;;;7.97;2.85;;;14.90;99.90;;;;;;2077544;28;20461;-70
2023/09/14 04:56:21;;;;;;;6.40;3.65;;;15.00;99.90;;;;;;2075087;28;20029;-71
2023/09/14 04:57:24;;;;;;;6.22;2.90;;;15.00;99.90;;;;;;2075012;28;20025;-71
2023/09/14 04:58:25;;;;;;;6.00;2.85;;;15.00;99.90;;;;;;2075639;28;20400;-71
2023/09/14 04:59:26;;;;;;;6.22;2.45;;;15.00;99.90;;;;;;2077131;28;20113;-71
2023/09/14 05:00:26;;;;;;;4.60;2.30;;;15.00;99.90;;;;;;2076121;28;20032;-70
2023/09/14 05:01:27;;;;;;;5.65;2.28;;;15.00;99.90;;;;;;2075737;28;20059;-71
2023/09/14 05:02:27;;;;;;;4.35;2.70;;;15.00;99.90;;;;;;2077209;28;20029;-71
2023/09/14 05:03:28;;;;;;;5.40;3.03;;;15.00;99.90;;;;;;2076844;28;20063;-71
2023/09/14 05:04:28;;;;;;;6.13;2.88;;;15.00;99.90;;;;;;2076711;28;20037;-71
2023/09/14 05:05:29;;;;;;;4.57;2.70;;;15.00;99.90;;;;;;2075792;28;20056;-71
2023/09/14 05:06:29;;;;;;;6.53;3.20;;;15.00;99.90;;;;;;2075396;28;20045;-71
2023/09/14 05:07:30;;;;;;;7.80;2.95;;;15.00;99.90;;;;;;2075962;28;20033;-71
2023/09/14 05:08:31;;;;;;;6.55;3.15;;;15.00;99.90;;;;;;2076741;28;20025;-71
2023/09/14 05:09:31;;;;;;;8.60;3.22;;;15.00;99.90;;;;;;2075440;28;20034;-71
2023/09/14 05:10:32;;;;;;;7.38;3.55;;;15.00;99.90;;;;;;2076231;28;20037;-70
2023/09/14 05:11:33;;;;;;;6.90;3.15;;;15.10;99.90;;;;;;2076680;28;20034;-70
2023/09/14 05:12:33;;;;;;;9.30;3.42;;;15.10;99.90;;;;;;2075746;28;20033;-71
2023/09/14 05:13:34;;;;;;;9.80;3.03;;;15.10;99.90;;;;;;2076504;28;20049;-70
2023/09/14 05:14:34;;;;;;;7.32;3.20;;;15.10;99.90;;;;;;2075890;28;20033;-70
2023/09/14 05:15:35;;;;;;;6.65;3.40;;;15.10;99.90;;;;;;2076742;28;20723;-70
2023/09/14 05:16:35;;;;;;;7.30;3.42;;;15.10;99.90;;;;;;2075098;28;20112;-70
2023/09/14 05:17:36;;;;;;;5.47;3.08;;;15.10;99.90;;;;;;2076368;28;20057;-70
2023/09/14 05:18:36;;;;;;;5.78;3.70;;;15.10;99.90;;;;;;2076754;28;20478;-70
2023/09/14 05:19:41;;;;;;;10.70;3.13;;;15.10;99.90;;;;;;2075123;28;20044;-70
2023/09/14 05:20:47;;;;;;;6.10;2.92;;;15.10;99.90;;;;;;2075349;28;20199;-70